This is the latest recevied weather packets stored in our database for station/object KB9PVH-3. If no packets are shown the sender has not sent any weather packets the latest 10 day(s).
| Time | Temp. | Humidity | Pressure | Rain* | Wind** | Luminosity | Snow |
|---|---|---|---|---|---|---|---|
| 1777928617 | 25.56° C | 33% | 997.8 hPa | 0 mm | - | - | - |
| 1777927567 | 26.67° C | 31% | 997.9 hPa | 0 mm | - | - | - |
| 1777926517 | 26.11° C | 33% | 997.9 hPa | 0 mm | - | - | - |
| 1777925463 | 26.11° C | 34% | 998.1 hPa | 0 mm | - | - | - |
| 1777924415 | 26.11° C | 32% | 998.4 hPa | 0 mm | - | - | - |
| 1777923367 | 25.56° C | 33% | 998.4 hPa | 0 mm | - | - | - |
| 1777921263 | 26.67° C | 30% | 998.9 hPa | 0 mm | - | - | - |
| 1777920213 | 27.22° C | 29% | 998.8 hPa | 0 mm | - | - | - |
| 1777919164 | 26.67° C | 30% | 999 hPa | 0 mm | - | - | - |
| 1777918113 | 26.11° C | 31% | 998.8 hPa | 0 mm | - | - | - |
| 1777917063 | 25.56° C | 30% | 998.9 hPa | 0 mm | - | - | - |
| 1777916013 | 25.56° C | 31% | 999.2 hPa | 0 mm | - | - | - |
| 1777914963 | 25.56° C | 28% | 999.3 hPa | 0 mm | - | - | - |
| 1777913917 | 25° C | 32% | 999.6 hPa | 0 mm | - | - | - |
| 1777912866 | 24.44° C | 32% | 999.9 hPa | 0 mm | - | - | - |
| 1777911814 | 24.44° C | 31% | 999.9 hPa | 0 mm | - | - | - |
| 1777910767 | 23.33° C | 33% | 1000.3 hPa | 0 mm | - | - | - |
| 1777909713 | 22.78° C | 34% | 1000.3 hPa | 0 mm | - | - | - |
| 1777906566 | 21.11° C | 37% | 1001.3 hPa | 0 mm | - | - | - |
| 1777905513 | 20° C | 38% | 1001.6 hPa | 0 mm | - | - | - |
| 1777904464 | 18.89° C | 40% | 1001.8 hPa | 0 mm | - | - | - |
| 1777902362 | 17.22° C | 46% | 1002.2 hPa | 0 mm | - | - | - |
| 1777901317 | 16.11° C | 47% | 1002.6 hPa | 0 mm | - | - | - |
| 1777899212 | 13.89° C | 55% | 1003.1 hPa | 0 mm | - | - | - |
| 1777898167 | 12.22° C | 60% | 1003 hPa | 0 mm | - | - | - |
* Rain latest hour (hover to see other rain measurements)
** Current wind speed in m/s (hover to see current wind gust speed)